createdAt,value
2023-07-02T00:00:33.224Z,82.32
2023-07-02T00:03:02.737Z,82.92
2023-07-02T00:05:31.870Z,82.70
2023-07-02T00:08:00.315Z,82.19
2023-07-02T00:10:28.797Z,82.40
2023-07-02T00:12:56.819Z,82.71
2023-07-02T00:15:24.988Z,82.89
2023-07-02T00:17:53.903Z,82.89
2023-07-02T00:20:22.038Z,82.46
2023-07-02T00:22:50.601Z,82.50
2023-07-02T00:25:19.012Z,82.70
2023-07-02T00:27:47.076Z,81.82
2023-07-02T00:30:15.523Z,82.36
2023-07-02T00:32:43.993Z,82.90
2023-07-02T00:35:13.306Z,82.21
2023-07-02T00:37:41.316Z,81.97
2023-07-02T00:40:10.110Z,82.01
2023-07-02T00:42:38.366Z,82.15
2023-07-02T00:45:07.730Z,81.36
2023-07-02T00:47:37.060Z,81.02
2023-07-02T00:50:06.394Z,80.73
2023-07-02T00:52:34.431Z,80.41
2023-07-02T00:55:03.822Z,78.84
2023-07-02T00:57:32.053Z,79.16
2023-07-02T01:00:04.190Z,78.58
2023-07-02T01:02:32.938Z,78.08
2023-07-02T01:05:02.507Z,77.33
2023-07-02T01:07:31.001Z,77.19
2023-07-02T01:09:59.540Z,77.10
2023-07-02T01:12:29.319Z,76.40
2023-07-02T01:15:01.862Z,76.76
2023-07-02T01:17:43.262Z,76.37
2023-07-02T01:20:13.141Z,77.10
2023-07-02T01:22:41.961Z,76.92
2023-07-02T01:25:10.683Z,76.56
2023-07-02T01:27:38.901Z,76.40
2023-07-02T01:30:09.921Z,76.17
2023-07-02T01:32:39.070Z,76.40
2023-07-02T01:35:08.778Z,76.00
2023-07-02T01:37:38.678Z,76.61
2023-07-02T01:40:09.573Z,77.23
2023-07-02T01:42:38.790Z,77.53
2023-07-02T01:45:07.496Z,77.65
2023-07-02T01:47:35.644Z,77.95
2023-07-02T01:50:06.216Z,79.13
2023-07-02T01:52:34.876Z,78.14
2023-07-02T01:55:04.079Z,77.83
2023-07-02T01:57:32.964Z,78.32
2023-07-02T02:00:01.038Z,78.38
2023-07-02T02:02:29.872Z,78.76
2023-07-02T02:04:58.558Z,78.09
2023-07-02T02:07:27.203Z,78.34
2023-07-02T02:09:55.379Z,78.08
2023-07-02T02:12:23.758Z,78.32
2023-07-02T02:14:52.058Z,78.45
2023-07-02T02:17:20.868Z,78.32
2023-07-02T02:19:48.993Z,77.45
2023-07-02T02:22:17.503Z,77.36
2023-07-02T02:24:45.898Z,77.65
2023-07-02T02:27:14.082Z,77.24
2023-07-02T02:29:42.152Z,77.10
2023-07-02T02:32:11.082Z,76.54
2023-07-02T02:34:40.206Z,76.26
2023-07-02T02:37:09.085Z,76.47
2023-07-02T02:39:38.440Z,76.00
2023-07-02T02:42:06.674Z,75.34
2023-07-02T02:44:35.619Z,74.55
2023-07-02T02:47:05.984Z,75.26
2023-07-02T02:49:34.345Z,74.71
2023-07-02T02:52:02.520Z,73.99
2023-07-02T02:54:30.879Z,73.68
2023-07-02T02:56:58.960Z,72.26
2023-07-02T02:59:27.223Z,72.50
2023-07-02T03:01:55.776Z,71.01
2023-07-02T03:04:26.879Z,70.52
2023-07-02T03:06:55.045Z,70.41
2023-07-02T03:09:23.687Z,70.80
2023-07-02T03:11:51.798Z,70.67
2023-07-02T03:14:19.930Z,70.28
2023-07-02T03:16:48.478Z,69.98
2023-07-02T03:19:17.237Z,70.74
2023-07-02T03:21:45.922Z,71.12
2023-07-02T03:24:14.560Z,71.69
2023-07-02T03:26:44.166Z,70.55
2023-07-02T03:29:12.532Z,70.33
2023-07-02T03:31:41.015Z,70.39
2023-07-02T03:34:10.645Z,70.50
2023-07-02T03:36:39.102Z,70.99
2023-07-02T03:39:10.407Z,71.15
2023-07-02T03:41:39.069Z,71.75
2023-07-02T03:44:07.688Z,69.98
2023-07-02T03:46:36.237Z,69.69
2023-07-02T03:49:04.781Z,70.89
2023-07-02T03:51:33.204Z,68.55
2023-07-02T03:54:01.274Z,69.76
2023-07-02T03:56:29.337Z,69.29
2023-07-02T03:58:57.691Z,70.15
2023-07-02T04:01:25.837Z,69.94
2023-07-02T04:03:55.885Z,69.09
2023-07-02T04:06:24.243Z,68.29
2023-07-02T04:08:52.290Z,69.37
2023-07-02T04:11:20.820Z,69.50
2023-07-02T04:13:49.036Z,69.35
2023-07-02T04:16:17.217Z,69.51
2023-07-02T04:18:45.665Z,69.49
2023-07-02T04:21:13.787Z,69.72
2023-07-02T04:23:41.827Z,70.36
2023-07-02T04:26:18.872Z,70.25
2023-07-02T04:29:00.145Z,71.16
2023-07-02T04:31:28.783Z,69.81
2023-07-02T04:33:58.139Z,70.72
2023-07-02T04:36:26.243Z,72.31
2023-07-02T04:38:54.744Z,71.81
2023-07-02T04:41:22.768Z,71.08
2023-07-02T04:43:51.072Z,71.10
2023-07-02T04:46:19.611Z,71.95
2023-07-02T04:48:47.888Z,71.65
2023-07-02T04:51:16.454Z,71.04
2023-07-02T04:53:44.956Z,71.78
2023-07-02T04:56:13.183Z,72.14
2023-07-02T04:58:41.235Z,71.03
2023-07-02T05:01:09.903Z,71.61
2023-07-02T05:03:39.176Z,71.07
2023-07-02T05:06:07.236Z,72.60
2023-07-02T05:08:37.501Z,71.89
2023-07-02T05:11:05.744Z,71.17
2023-07-02T05:13:33.882Z,70.72
2023-07-02T05:16:02.321Z,71.53
2023-07-02T05:18:30.380Z,72.62
2023-07-02T05:20:58.384Z,70.04
2023-07-02T05:23:26.855Z,71.98
2023-07-02T05:25:54.924Z,70.50
2023-07-02T05:28:23.079Z,69.87
2023-07-02T05:30:51.715Z,69.64
2023-07-02T05:33:21.247Z,70.99
2023-07-02T05:35:49.619Z,71.82
2023-07-02T05:38:19.994Z,70.17
2023-07-02T05:40:48.208Z,69.57
2023-07-02T05:43:16.605Z,70.32
2023-07-02T05:45:44.932Z,69.24
2023-07-02T05:48:13.121Z,70.73
2023-07-02T05:50:41.266Z,70.30
2023-07-02T05:53:10.925Z,69.97
2023-07-02T05:55:40.324Z,69.82
2023-07-02T05:58:08.655Z,69.46
2023-07-02T06:00:37.245Z,69.18
2023-07-02T06:03:05.629Z,68.92
2023-07-02T06:05:34.778Z,65.34
2023-07-02T06:08:03.037Z,65.29
2023-07-02T06:10:31.512Z,68.91
2023-07-02T06:12:59.585Z,62.47
2023-07-02T06:15:27.917Z,63.54
2023-07-02T06:17:56.499Z,62.88
2023-07-02T06:20:24.632Z,63.90
2023-07-02T06:22:52.837Z,62.95
2023-07-02T06:25:21.218Z,62.23
2023-07-02T06:27:49.380Z,60.95
2023-07-02T06:30:17.538Z,62.90
2023-07-02T06:32:46.050Z,62.12
2023-07-02T06:35:14.173Z,61.37
2023-07-02T06:37:42.980Z,60.74
2023-07-02T06:40:11.813Z,61.60
2023-07-02T06:42:41.328Z,60.07
2023-07-02T06:45:09.857Z,58.75
2023-07-02T06:47:38.677Z,60.96
2023-07-02T06:50:07.067Z,59.73
2023-07-02T06:52:35.308Z,60.28
2023-07-02T06:55:05.543Z,58.98
2023-07-02T06:57:33.604Z,57.29
2023-07-02T07:00:02.047Z,57.47
2023-07-02T07:02:30.461Z,58.94
2023-07-02T07:04:58.747Z,58.38
2023-07-02T07:07:27.150Z,57.75
2023-07-02T07:09:55.535Z,56.19
2023-07-02T07:12:23.578Z,55.69
2023-07-02T07:14:51.893Z,56.30
2023-07-02T07:17:20.705Z,56.65
2023-07-02T07:19:48.815Z,55.32
2023-07-02T07:22:17.401Z,53.61
2023-07-02T07:24:45.708Z,54.63
2023-07-02T07:27:13.799Z,54.25
2023-07-02T07:29:42.004Z,53.30
2023-07-02T07:32:10.335Z,54.11
2023-07-02T07:34:38.392Z,52.59
2023-07-02T07:37:06.688Z,53.18
2023-07-02T07:39:35.066Z,51.01
2023-07-02T07:42:03.251Z,51.39
2023-07-02T07:44:32.162Z,51.24
2023-07-02T07:47:00.649Z,49.88
2023-07-02T07:49:28.639Z,49.88
2023-07-02T07:51:56.785Z,48.43
2023-07-02T07:54:25.943Z,48.91
2023-07-02T07:56:53.978Z,50.17
2023-07-02T07:59:22.884Z,51.46
2023-07-02T08:01:51.424Z,51.68
2023-07-02T08:04:19.773Z,52.57
2023-07-02T08:06:47.857Z,53.21
2023-07-02T08:09:15.969Z,53.56
2023-07-02T08:11:44.303Z,54.50
2023-07-02T08:14:13.590Z,56.15
2023-07-02T08:16:41.974Z,57.04
2023-07-02T08:19:10.447Z,57.55
2023-07-02T08:21:38.611Z,56.95
2023-07-02T08:24:07.466Z,55.81
2023-07-02T08:26:35.833Z,52.21
2023-07-02T08:29:04.277Z,53.09
2023-07-02T08:31:32.436Z,53.73
2023-07-02T08:34:00.751Z,50.39
2023-07-02T08:36:28.838Z,51.13
2023-07-02T08:38:56.923Z,50.62
2023-07-02T08:41:25.374Z,51.36
2023-07-02T08:43:56.972Z,49.51
2023-07-02T08:46:25.606Z,47.22
2023-07-02T08:48:53.917Z,48.19
2023-07-02T08:51:22.130Z,48.10
2023-07-02T08:53:50.653Z,47.62
2023-07-02T08:56:18.765Z,46.60
2023-07-02T08:58:46.963Z,48.36
2023-07-02T09:01:15.918Z,48.83
2023-07-02T09:03:44.179Z,46.44
2023-07-02T09:06:14.001Z,46.26
2023-07-02T09:08:42.830Z,47.13
2023-07-02T09:11:19.978Z,50.00
2023-07-02T09:13:53.508Z,49.42
2023-07-02T09:16:33.965Z,48.27
2023-07-02T09:19:03.561Z,46.66
2023-07-02T09:21:46.275Z,45.97
2023-07-02T09:24:22.666Z,45.06
2023-07-02T09:26:52.694Z,43.54
2023-07-02T09:29:42.310Z,44.26
2023-07-02T09:32:11.250Z,46.51
2023-07-02T09:34:43.686Z,45.10
2023-07-02T09:37:11.862Z,46.21
2023-07-02T09:39:40.699Z,42.55
2023-07-02T09:42:10.727Z,42.34
2023-07-02T09:44:39.456Z,45.34
2023-07-02T09:47:09.574Z,44.31
2023-07-02T09:49:44.808Z,43.99
2023-07-02T09:52:14.753Z,43.80
2023-07-02T09:54:46.270Z,43.51
2023-07-02T09:57:14.770Z,43.52
2023-07-02T09:59:43.381Z,44.05
2023-07-02T10:02:13.354Z,42.50
2023-07-02T10:04:46.988Z,45.91
2023-07-02T10:07:30.749Z,45.76
2023-07-02T10:09:59.486Z,44.94
2023-07-02T10:12:29.672Z,43.85
2023-07-02T10:14:59.427Z,44.56
2023-07-02T10:17:32.411Z,45.05
2023-07-02T10:20:06.946Z,43.81
2023-07-02T10:22:44.772Z,47.04
2023-07-02T10:25:12.876Z,47.01
2023-07-02T10:27:43.692Z,48.38
2023-07-02T10:30:12.004Z,48.74
2023-07-02T10:32:41.141Z,47.10
2023-07-02T10:35:19.253Z,44.38
2023-07-02T10:37:48.003Z,44.66
2023-07-02T10:40:16.282Z,42.33
2023-07-02T10:42:48.104Z,45.12
2023-07-02T10:45:17.595Z,45.81
2023-07-02T10:47:46.652Z,46.07
2023-07-02T10:50:21.606Z,46.50
2023-07-02T10:52:51.844Z,46.40
2023-07-02T10:55:21.431Z,44.65
2023-07-02T10:57:52.595Z,47.58
2023-07-02T11:00:21.075Z,45.08
2023-07-02T11:02:49.966Z,43.59
2023-07-02T11:05:18.658Z,43.82
2023-07-02T11:07:46.748Z,46.77
2023-07-02T11:10:21.315Z,45.54
2023-07-02T11:12:49.516Z,46.05
2023-07-02T11:15:21.340Z,43.33
2023-07-02T11:17:49.644Z,43.36
2023-07-02T11:20:18.277Z,42.28
2023-07-02T11:22:47.595Z,43.74
2023-07-02T11:25:17.903Z,45.09
2023-07-02T11:27:46.227Z,43.19
2023-07-02T11:30:15.055Z,45.87
2023-07-02T11:32:50.920Z,45.51
2023-07-02T11:35:20.249Z,44.11
2023-07-02T11:37:50.317Z,43.05
2023-07-02T11:40:18.971Z,43.53
2023-07-02T11:42:47.328Z,47.42
2023-07-02T11:45:15.473Z,43.19
2023-07-02T11:47:43.692Z,43.28
2023-07-02T11:50:25.569Z,44.33
2023-07-02T11:52:54.820Z,41.91
2023-07-02T11:55:23.680Z,42.56
2023-07-02T11:57:51.813Z,43.19
2023-07-02T12:00:20.125Z,43.16
2023-07-02T12:02:49.518Z,43.47
2023-07-02T12:05:17.660Z,43.03
2023-07-02T12:07:45.960Z,43.58
2023-07-02T12:10:15.631Z,42.30
2023-07-02T12:12:43.744Z,45.75
2023-07-02T12:15:12.023Z,45.99
2023-07-02T12:17:40.433Z,45.18
2023-07-02T12:20:09.002Z,46.13
2023-07-02T12:22:37.162Z,46.07
2023-07-02T12:25:06.577Z,45.13
2023-07-02T12:27:34.625Z,44.60
2023-07-02T12:30:03.838Z,43.35
2023-07-02T12:32:32.533Z,43.36
2023-07-02T12:35:00.654Z,42.36
2023-07-02T12:37:28.765Z,44.72
2023-07-02T12:39:57.266Z,44.48
2023-07-02T12:42:25.437Z,42.51
2023-07-02T12:44:53.736Z,42.93
2023-07-02T12:47:22.201Z,43.83
2023-07-02T12:49:50.314Z,44.66
2023-07-02T12:52:18.522Z,44.30
2023-07-02T12:54:47.131Z,45.98
2023-07-02T12:57:15.260Z,44.94
2023-07-02T12:59:44.140Z,44.83
2023-07-02T13:02:12.691Z,44.71
2023-07-02T13:04:41.096Z,44.89
2023-07-02T13:07:12.075Z,42.25
2023-07-02T13:09:40.787Z,42.35
2023-07-02T13:12:09.427Z,43.31
2023-07-02T13:14:37.811Z,46.25
2023-07-02T13:17:06.672Z,41.68
2023-07-02T13:19:35.192Z,40.35
2023-07-02T13:22:04.027Z,39.88
2023-07-02T13:24:38.886Z,41.44
2023-07-02T13:27:13.857Z,43.33
2023-07-02T13:29:42.290Z,42.88
2023-07-02T13:32:10.746Z,43.63
2023-07-02T13:34:39.151Z,41.81
2023-07-02T13:37:08.425Z,42.39
2023-07-02T13:39:36.696Z,43.12
2023-07-02T13:42:05.123Z,43.81
2023-07-02T13:44:33.635Z,42.67
2023-07-02T13:47:01.732Z,43.61
2023-07-02T13:49:29.798Z,41.82
2023-07-02T13:51:58.373Z,45.68
2023-07-02T13:54:26.690Z,42.77
2023-07-02T13:56:54.767Z,43.90
2023-07-02T13:59:23.818Z,42.99
2023-07-02T14:01:52.210Z,43.05
2023-07-02T14:04:20.652Z,43.03
2023-07-02T14:06:48.988Z,45.98
2023-07-02T14:09:17.101Z,42.94
2023-07-02T14:11:45.493Z,43.01
2023-07-02T14:14:13.587Z,44.96
2023-07-02T14:16:42.146Z,42.43
2023-07-02T14:19:10.738Z,42.17
2023-07-02T14:21:39.009Z,42.39
2023-07-02T14:24:07.190Z,45.30
2023-07-02T14:26:35.552Z,43.48
2023-07-02T14:29:03.900Z,43.21
2023-07-02T14:31:31.997Z,45.30
2023-07-02T14:34:00.527Z,45.23
2023-07-02T14:36:28.649Z,43.80
2023-07-02T14:38:56.755Z,43.20
2023-07-02T14:41:25.138Z,43.85
2023-07-02T14:43:53.156Z,45.60
2023-07-02T14:46:23.579Z,44.18
2023-07-02T14:48:52.058Z,44.69
2023-07-02T14:51:20.205Z,45.68
2023-07-02T14:53:48.252Z,45.26
2023-07-02T14:56:16.855Z,45.34
2023-07-02T14:58:44.990Z,45.31
2023-07-02T15:01:13.064Z,44.23
2023-07-02T15:03:41.811Z,46.21
2023-07-02T15:06:15.170Z,45.01
2023-07-02T15:08:43.658Z,43.74
2023-07-02T15:11:13.387Z,44.48
2023-07-02T15:13:45.028Z,42.79
2023-07-02T15:16:14.105Z,43.20
2023-07-02T15:18:42.306Z,42.94
2023-07-02T15:21:10.606Z,43.40
2023-07-02T15:23:39.024Z,42.14
2023-07-02T15:26:07.721Z,42.30
2023-07-02T15:28:37.342Z,42.08
2023-07-02T15:31:09.577Z,40.84
2023-07-02T15:33:38.199Z,41.15
2023-07-02T15:36:10.247Z,39.92
2023-07-02T15:38:38.466Z,40.45
2023-07-02T15:41:16.390Z,41.86
2023-07-02T15:43:45.484Z,40.79
2023-07-02T15:46:16.773Z,41.82
2023-07-02T15:48:45.691Z,42.02
2023-07-02T15:51:14.064Z,42.43
2023-07-02T15:53:43.538Z,42.63
2023-07-02T15:56:12.190Z,43.06
2023-07-02T15:58:40.596Z,42.50
2023-07-02T16:01:15.227Z,42.39
2023-07-02T16:03:44.367Z,43.00
2023-07-02T16:06:14.498Z,43.87
2023-07-02T16:08:44.170Z,43.69
2023-07-02T16:11:14.265Z,44.33
2023-07-02T16:13:43.802Z,44.00
2023-07-02T16:16:12.386Z,45.84
2023-07-02T16:18:40.785Z,44.93
2023-07-02T16:21:08.946Z,44.76
2023-07-02T16:23:37.306Z,45.28
2023-07-02T16:26:07.028Z,45.50
2023-07-02T16:28:37.226Z,45.40
2023-07-02T16:31:09.146Z,45.58
2023-07-02T16:33:38.494Z,45.67
2023-07-02T16:36:09.939Z,45.01
2023-07-02T16:38:38.394Z,44.12
2023-07-02T16:41:09.452Z,44.66
2023-07-02T16:43:37.497Z,45.91
2023-07-02T16:46:05.608Z,45.48
2023-07-02T16:48:34.005Z,46.30
2023-07-02T16:51:07.292Z,46.94
2023-07-02T16:53:35.760Z,46.04
2023-07-02T16:56:05.888Z,46.94
2023-07-02T16:58:34.580Z,46.68
2023-07-02T17:01:09.118Z,45.63
2023-07-02T17:03:37.424Z,45.64
2023-07-02T17:06:07.852Z,45.71
2023-07-02T17:08:39.042Z,45.35
2023-07-02T17:11:09.735Z,45.65
2023-07-02T17:13:38.176Z,45.37
2023-07-02T17:16:07.147Z,45.23
2023-07-02T17:18:35.808Z,45.97
2023-07-02T17:21:04.011Z,46.44
2023-07-02T17:23:32.035Z,47.52
2023-07-02T17:26:05.206Z,46.90
2023-07-02T17:28:33.675Z,45.71
2023-07-02T17:31:03.099Z,45.88
2023-07-02T17:33:31.334Z,46.42
2023-07-02T17:35:59.438Z,47.96
2023-07-02T17:38:27.773Z,48.23
2023-07-02T17:40:55.799Z,48.76
2023-07-02T17:43:23.809Z,48.82
2023-07-02T17:45:56.572Z,48.87
2023-07-02T17:48:27.051Z,48.31
2023-07-02T17:51:00.387Z,49.93
2023-07-02T17:53:32.388Z,49.29
2023-07-02T17:56:01.056Z,49.78
2023-07-02T17:58:29.410Z,49.20
2023-07-02T18:00:57.662Z,49.81
2023-07-02T18:03:26.402Z,50.24
2023-07-02T18:05:55.040Z,48.98
2023-07-02T18:08:23.474Z,47.89
2023-07-02T18:10:52.042Z,47.03
2023-07-02T18:13:22.462Z,47.80
2023-07-02T18:15:52.386Z,47.62
2023-07-02T18:18:21.908Z,47.64
2023-07-02T18:20:50.640Z,47.93
2023-07-02T18:23:19.773Z,48.02
2023-07-02T18:25:53.534Z,47.82
2023-07-02T18:28:24.804Z,47.56
2023-07-02T18:30:54.017Z,48.59
2023-07-02T18:33:22.126Z,48.21
2023-07-02T18:35:51.076Z,48.91
2023-07-02T18:38:19.915Z,48.75
2023-07-02T18:40:48.063Z,49.41
2023-07-02T18:43:16.174Z,49.38
2023-07-02T18:45:52.312Z,49.53
2023-07-02T18:48:21.546Z,49.74
2023-07-02T18:50:50.159Z,50.20
2023-07-02T18:53:19.838Z,49.80
2023-07-02T18:55:58.812Z,50.59
2023-07-02T18:58:28.417Z,50.83
2023-07-02T19:00:56.953Z,50.85
2023-07-02T19:03:25.033Z,50.94
2023-07-02T19:05:53.578Z,51.09
2023-07-02T19:08:22.507Z,51.33
2023-07-02T19:11:01.102Z,51.48
2023-07-02T19:13:29.658Z,51.42
2023-07-02T19:15:57.774Z,51.88
2023-07-02T19:18:26.936Z,51.64
2023-07-02T19:20:59.096Z,51.74
2023-07-02T19:23:32.269Z,52.62
2023-07-02T19:26:00.755Z,52.64
2023-07-02T19:28:29.150Z,53.69
2023-07-02T19:31:02.178Z,53.09
2023-07-02T19:33:31.090Z,53.71
2023-07-02T19:35:59.216Z,53.82
2023-07-02T19:38:30.592Z,53.79
2023-07-02T19:40:59.496Z,54.46
2023-07-02T19:43:28.228Z,54.73
2023-07-02T19:45:58.886Z,53.86
2023-07-02T19:48:28.030Z,54.18
2023-07-02T19:51:05.130Z,54.76
2023-07-02T19:53:35.383Z,54.89
2023-07-02T19:56:07.772Z,53.89
2023-07-02T19:58:36.660Z,54.51
2023-07-02T20:01:11.271Z,54.49
2023-07-02T20:03:41.762Z,55.73
2023-07-02T20:06:10.926Z,55.38
2023-07-02T20:08:39.540Z,55.12
2023-07-02T20:11:07.856Z,55.07
2023-07-02T20:13:36.780Z,55.97
2023-07-02T20:16:05.780Z,54.76
2023-07-02T20:18:33.799Z,55.54
2023-07-02T20:21:04.040Z,55.81
2023-07-02T20:23:33.504Z,55.70
2023-07-02T20:26:01.736Z,55.52
2023-07-02T20:28:29.968Z,56.19
2023-07-02T20:31:03.202Z,56.05
2023-07-02T20:33:31.408Z,55.78
2023-07-02T20:36:02.455Z,55.55
2023-07-02T20:38:31.618Z,55.89
2023-07-02T20:41:03.508Z,56.89
2023-07-02T20:43:34.718Z,56.50
2023-07-02T20:46:05.706Z,56.30
2023-07-02T20:48:34.837Z,55.76
2023-07-02T20:51:04.506Z,56.04
2023-07-02T20:53:32.656Z,55.67
2023-07-02T20:56:00.852Z,55.37
2023-07-02T20:58:29.440Z,55.40
2023-07-02T21:01:02.827Z,55.98
2023-07-02T21:03:31.641Z,55.90
2023-07-02T21:06:04.224Z,56.58
2023-07-02T21:08:32.913Z,56.65
2023-07-02T21:11:04.922Z,56.47
2023-07-02T21:13:35.905Z,57.45
2023-07-02T21:16:07.242Z,57.12
2023-07-02T21:18:35.682Z,57.19
2023-07-02T21:21:03.830Z,57.41
2023-07-02T21:23:32.775Z,57.27
2023-07-02T21:26:03.942Z,58.38
2023-07-02T21:28:32.554Z,58.15
2023-07-02T21:31:01.206Z,58.73
2023-07-02T21:33:32.209Z,59.14
2023-07-02T21:36:09.070Z,58.33
2023-07-02T21:38:39.010Z,58.72
2023-07-02T21:41:09.383Z,59.44
2023-07-02T21:43:37.720Z,60.39
2023-07-02T21:46:08.670Z,59.72
2023-07-02T21:48:40.222Z,59.75
2023-07-02T21:51:08.306Z,60.12
2023-07-02T21:53:37.507Z,60.56
2023-07-02T21:56:06.019Z,60.21
2023-07-02T21:58:34.191Z,60.73
2023-07-02T22:01:02.770Z,61.90
2023-07-02T22:03:31.380Z,61.92
2023-07-02T22:05:59.972Z,62.13
2023-07-02T22:08:28.113Z,62.40
2023-07-02T22:11:05.833Z,62.96
2023-07-02T22:13:37.486Z,62.95
2023-07-02T22:16:05.971Z,62.40
2023-07-02T22:18:38.065Z,61.77
2023-07-02T22:21:07.273Z,61.66
2023-07-02T22:23:35.773Z,61.66
2023-07-02T22:26:04.378Z,62.21
2023-07-02T22:28:33.052Z,61.75
2023-07-02T22:31:03.398Z,62.03
2023-07-02T22:33:33.750Z,62.18
2023-07-02T22:36:02.316Z,62.58
2023-07-02T22:38:30.453Z,61.49
2023-07-02T22:40:58.535Z,62.72
2023-07-02T22:43:26.946Z,61.69
2023-07-02T22:45:55.378Z,61.96
2023-07-02T22:48:23.670Z,62.56
2023-07-02T22:50:52.025Z,62.41
2023-07-02T22:53:20.050Z,62.63
2023-07-02T22:55:48.211Z,63.44
2023-07-02T22:58:16.713Z,62.81
2023-07-02T23:00:44.859Z,63.82
2023-07-02T23:03:14.288Z,63.15
2023-07-02T23:05:42.991Z,62.57
2023-07-02T23:08:13.153Z,63.11
2023-07-02T23:10:41.282Z,63.73
2023-07-02T23:13:09.808Z,64.12
2023-07-02T23:15:37.863Z,64.28
2023-07-02T23:18:05.915Z,63.64
2023-07-02T23:20:37.870Z,64.44
2023-07-02T23:23:07.107Z,64.35
2023-07-02T23:25:35.775Z,64.69
2023-07-02T23:28:04.356Z,64.74
2023-07-02T23:30:35.055Z,64.77
2023-07-02T23:33:11.039Z,63.88
2023-07-02T23:35:39.608Z,64.75
2023-07-02T23:38:08.446Z,64.43
2023-07-02T23:40:37.051Z,64.56
2023-07-02T23:43:05.777Z,64.70
2023-07-02T23:45:34.363Z,64.77
2023-07-02T23:48:02.472Z,65.00
2023-07-02T23:50:30.639Z,64.96
2023-07-02T23:52:59.068Z,65.85
2023-07-02T23:55:27.196Z,65.92
2023-07-02T23:57:55.436Z,66.06
